TimeCST,TemperatureF,Dew PointF,Humidity,Sea Level PressureIn,VisibilityMPH,Wind Direction,Wind SpeedMPH,Gust SpeedMPH,PrecipitationIn,Events,Conditions,WindDirDegrees,DateUTC
12:52 AM,62.1,39.0,43,29.91,10.0,South,24.2,31.1,N/A,,Clear,180,2012-11-22 06:52:00
1:52 AM,61.0,39.0,44,29.91,10.0,South,23.0,31.1,N/A,,Overcast,190,2012-11-22 07:52:00
2:52 AM,60.1,39.9,47,29.89,10.0,South,21.9,31.1,N/A,,Clear,190,2012-11-22 08:52:00
3:52 AM,59.0,41.0,51,29.87,10.0,South,18.4,29.9,N/A,,Clear,190,2012-11-22 09:52:00
4:52 AM,60.1,43.0,53,29.86,10.0,South,18.4,27.6,N/A,,Clear,180,2012-11-22 10:52:00
5:52 AM,62.1,44.1,52,29.85,10.0,South,16.1,25.3,N/A,,Mostly Cloudy,190,2012-11-22 11:52:00
6:52 AM,63.0,44.1,50,29.84,10.0,South,12.7,24.2,N/A,,Scattered Clouds,190,2012-11-22 12:52:00
7:52 AM,63.0,45.0,52,29.85,10.0,South,21.9,27.6,N/A,,Partly Cloudy,190,2012-11-22 13:52:00
8:52 AM,63.0,45.0,52,29.86,10.0,South,15.0,-,N/A,,Clear,190,2012-11-22 14:52:00
9:52 AM,64.9,46.9,52,29.88,10.0,SSW,9.2,-,N/A,,Clear,200,2012-11-22 15:52:00
10:52 AM,68.0,48.0,49,29.88,10.0,SW,20.7,31.1,N/A,,Clear,220,2012-11-22 16:52:00
11:52 AM,68.0,48.0,49,29.87,10.0,SW,24.2,29.9,N/A,,Clear,220,2012-11-22 17:52:00
12:52 PM,66.9,48.9,52,29.85,10.0,SW,18.4,25.3,N/A,,Partly Cloudy,220,2012-11-22 18:52:00
1:52 PM,68.0,50.0,52,29.85,10.0,SW,9.2,20.7,N/A,,Clear,220,2012-11-22 19:52:00
2:52 PM,70.0,51.1,51,29.87,10.0,SW,9.2,-,N/A,,Clear,220,2012-11-22 20:52:00
3:52 PM,72.0,50.0,46,29.90,10.0,West,12.7,-,N/A,,Clear,270,2012-11-22 21:52:00
4:48 PM,66.2,37.4,35,29.97,10.0,NNW,21.9,32.2,N/A,,Scattered Clouds,340,2012-11-22 22:48:00
4:52 PM,66.0,37.9,36,29.96,10.0,NNW,19.6,32.2,N/A,,Partly Cloudy,340,2012-11-22 22:52:00
5:52 PM,61.0,39.0,44,30.05,10.0,NNW,29.9,36.8,N/A,,Clear,340,2012-11-22 23:52:00
6:52 PM,57.0,39.0,51,30.11,10.0,NNW,13.8,24.2,N/A,,Clear,340,2012-11-23 00:52:00
7:52 PM,55.0,37.9,53,30.15,10.0,North,25.3,31.1,N/A,,Clear,350,2012-11-23 01:52:00
8:52 PM,51.1,37.9,61,30.21,10.0,North,9.2,-,N/A,,Clear,350,2012-11-23 02:52:00
9:52 PM,43.0,35.1,74,30.24,10.0,NNW,6.9,-,N/A,,Clear,330,2012-11-23 03:52:00
10:52 PM,42.1,34.0,73,30.25,10.0,NNW,9.2,-,N/A,,Clear,330,2012-11-23 04:52:00
11:52 PM,37.9,30.9,76,30.27,10.0,North,6.9,-,N/A,,Clear,350,2012-11-23 05:52:00